sensor_id;sensor_type;location;lat;lon;timestamp;P1;durP1;ratioP1;P2;durP2;ratioP2
40755;SDS011;26461;45.630;9.418;2022-11-03T00:03:01;24.67;;;12.75;;
40755;SDS011;26461;45.630;9.418;2022-11-03T00:06:11;32.03;;;15.82;;
40755;SDS011;26461;45.630;9.418;2022-11-03T00:09:22;24.27;;;11.43;;
40755;SDS011;26461;45.630;9.418;2022-11-03T00:12:32;20.83;;;12.52;;
40755;SDS011;26461;45.630;9.418;2022-11-03T00:15:48;29.98;;;14.95;;
40755;SDS011;26461;45.630;9.418;2022-11-03T00:18:58;32.65;;;13.10;;
40755;SDS011;26461;45.630;9.418;2022-11-03T00:22:08;19.27;;;12.63;;
40755;SDS011;26461;45.630;9.418;2022-11-03T00:25:18;31.90;;;12.80;;
40755;SDS011;26461;45.630;9.418;2022-11-03T00:28:29;21.25;;;15.32;;
40755;SDS011;26461;45.630;9.418;2022-11-03T00:31:42;18.10;;;13.15;;
40755;SDS011;26461;45.630;9.418;2022-11-03T00:34:53;23.52;;;13.85;;
40755;SDS011;26461;45.630;9.418;2022-11-03T00:38:03;25.17;;;13.55;;
40755;SDS011;26461;45.630;9.418;2022-11-03T00:41:13;28.33;;;14.77;;
40755;SDS011;26461;45.630;9.418;2022-11-03T00:44:25;30.98;;;13.18;;
40755;SDS011;26461;45.630;9.418;2022-11-03T00:47:35;21.15;;;10.13;;
40755;SDS011;26461;45.630;9.418;2022-11-03T00:51:48;21.13;;;15.55;;
40755;SDS011;26461;45.630;9.418;2022-11-03T00:54:39;21.45;;;15.07;;
40755;SDS011;26461;45.630;9.418;2022-11-03T00:57:51;23.65;;;14.63;;
40755;SDS011;26461;45.630;9.418;2022-11-03T01:01:02;20.55;;;11.73;;
40755;SDS011;26461;45.630;9.418;2022-11-03T01:04:16;21.80;;;12.70;;
40755;SDS011;26461;45.630;9.418;2022-11-03T01:07:44;35.55;;;13.50;;
40755;SDS011;26461;45.630;9.418;2022-11-03T01:10:54;18.02;;;9.73;;
40755;SDS011;26461;45.630;9.418;2022-11-03T01:14:23;28.60;;;12.80;;
40755;SDS011;26461;45.630;9.418;2022-11-03T01:17:41;28.20;;;13.93;;
40755;SDS011;26461;45.630;9.418;2022-11-03T01:20:54;36.20;;;16.67;;
40755;SDS011;26461;45.630;9.418;2022-11-03T01:24:05;31.63;;;13.93;;
40755;SDS011;26461;45.630;9.418;2022-11-03T01:27:16;24.55;;;14.80;;
40755;SDS011;26461;45.630;9.418;2022-11-03T01:30:27;35.88;;;13.63;;
40755;SDS011;26461;45.630;9.418;2022-11-03T01:33:37;29.70;;;17.55;;
40755;SDS011;26461;45.630;9.418;2022-11-03T01:36:47;33.38;;;15.95;;
40755;SDS011;26461;45.630;9.418;2022-11-03T01:39:58;20.55;;;14.63;;
40755;SDS011;26461;45.630;9.418;2022-11-03T01:43:18;25.38;;;13.27;;
40755;SDS011;26461;45.630;9.418;2022-11-03T01:46:30;23.27;;;12.45;;
40755;SDS011;26461;45.630;9.418;2022-11-03T01:49:46;28.48;;;13.55;;
40755;SDS011;26461;45.630;9.418;2022-11-03T01:53:00;24.05;;;13.07;;
40755;SDS011;26461;45.630;9.418;2022-11-03T01:56:10;22.92;;;13.18;;
40755;SDS011;26461;45.630;9.418;2022-11-03T01:59:23;34.00;;;11.55;;
40755;SDS011;26461;45.630;9.418;2022-11-03T02:02:34;21.17;;;12.65;;
40755;SDS011;26461;45.630;9.418;2022-11-03T02:05:44;24.33;;;11.52;;
40755;SDS011;26461;45.630;9.418;2022-11-03T02:08:59;18.83;;;9.57;;
40755;SDS011;26461;45.630;9.418;2022-11-03T02:12:15;23.48;;;11.98;;
40755;SDS011;26461;45.630;9.418;2022-11-03T02:15:28;14.68;;;9.88;;
40755;SDS011;26461;45.630;9.418;2022-11-03T02:18:40;26.52;;;11.23;;
40755;SDS011;26461;45.630;9.418;2022-11-03T02:25:17;16.08;;;9.02;;
40755;SDS011;26461;45.630;9.418;2022-11-03T02:28:47;11.13;;;7.57;;
40755;SDS011;26461;45.630;9.418;2022-11-03T02:32:02;16.35;;;8.77;;
40755;SDS011;26461;45.630;9.418;2022-11-03T02:38:30;17.50;;;9.20;;
40755;SDS011;26461;45.630;9.418;2022-11-03T02:41:44;21.70;;;10.27;;
40755;SDS011;26461;45.630;9.418;2022-11-03T02:44:56;14.20;;;7.63;;
40755;SDS011;26461;45.630;9.418;2022-11-03T02:48:10;10.07;;;7.15;;
40755;SDS011;26461;45.630;9.418;2022-11-03T02:51:23;21.63;;;9.25;;
40755;SDS011;26461;45.630;9.418;2022-11-03T02:54:34;21.33;;;11.85;;
40755;SDS011;26461;45.630;9.418;2022-11-03T02:57:56;18.10;;;8.82;;
40755;SDS011;26461;45.630;9.418;2022-11-03T03:01:09;12.82;;;5.82;;
40755;SDS011;26461;45.630;9.418;2022-11-03T03:04:28;15.23;;;7.38;;
40755;SDS011;26461;45.630;9.418;2022-11-03T03:08:01;14.88;;;9.10;;
40755;SDS011;26461;45.630;9.418;2022-11-03T03:11:14;14.30;;;8.85;;
40755;SDS011;26461;45.630;9.418;2022-11-03T03:14:26;17.05;;;5.88;;
40755;SDS011;26461;45.630;9.418;2022-11-03T03:17:44;16.33;;;7.28;;
40755;SDS011;26461;45.630;9.418;2022-11-03T03:21:03;9.98;;;4.63;;
40755;SDS011;26461;45.630;9.418;2022-11-03T03:28:10;12.32;;;7.35;;
40755;SDS011;26461;45.630;9.418;2022-11-03T03:31:25;9.95;;;3.40;;
40755;SDS011;26461;45.630;9.418;2022-11-03T03:34:38;22.45;;;8.88;;
40755;SDS011;26461;45.630;9.418;2022-11-03T03:37:52;24.13;;;7.85;;
40755;SDS011;26461;45.630;9.418;2022-11-03T03:41:06;9.60;;;6.65;;
40755;SDS011;26461;45.630;9.418;2022-11-03T03:44:18;12.27;;;5.18;;
40755;SDS011;26461;45.630;9.418;2022-11-03T03:47:29;10.77;;;5.85;;
40755;SDS011;26461;45.630;9.418;2022-11-03T03:50:40;13.18;;;6.85;;
40755;SDS011;26461;45.630;9.418;2022-11-03T03:53:52;13.82;;;6.22;;
40755;SDS011;26461;45.630;9.418;2022-11-03T03:57:03;15.40;;;8.15;;
40755;SDS011;26461;45.630;9.418;2022-11-03T04:00:15;13.90;;;7.15;;
40755;SDS011;26461;45.630;9.418;2022-11-03T04:03:26;14.30;;;6.00;;
40755;SDS011;26461;45.630;9.418;2022-11-03T04:06:32;14.10;;;10.52;;
40755;SDS011;26461;45.630;9.418;2022-11-03T04:09:42;19.17;;;8.23;;
40755;SDS011;26461;45.630;9.418;2022-11-03T04:12:52;11.05;;;7.35;;
40755;SDS011;26461;45.630;9.418;2022-11-03T04:16:20;7.28;;;4.75;;
40755;SDS011;26461;45.630;9.418;2022-11-03T04:19:48;15.48;;;8.52;;
40755;SDS011;26461;45.630;9.418;2022-11-03T04:23:17;12.70;;;8.27;;
40755;SDS011;26461;45.630;9.418;2022-11-03T04:26:28;12.00;;;7.43;;
40755;SDS011;26461;45.630;9.418;2022-11-03T04:29:38;19.63;;;7.40;;
40755;SDS011;26461;45.630;9.418;2022-11-03T04:32:48;19.30;;;7.35;;
40755;SDS011;26461;45.630;9.418;2022-11-03T04:36:00;16.70;;;6.88;;
40755;SDS011;26461;45.630;9.418;2022-11-03T04:39:19;12.52;;;6.82;;
40755;SDS011;26461;45.630;9.418;2022-11-03T04:42:30;15.02;;;7.78;;
40755;SDS011;26461;45.630;9.418;2022-11-03T04:45:45;12.15;;;7.68;;
40755;SDS011;26461;45.630;9.418;2022-11-03T04:48:57;12.20;;;7.60;;
40755;SDS011;26461;45.630;9.418;2022-11-03T04:52:16;12.00;;;7.82;;
40755;SDS011;26461;45.630;9.418;2022-11-03T04:55:28;19.17;;;10.77;;
40755;SDS011;26461;45.630;9.418;2022-11-03T04:58:38;12.95;;;6.85;;
40755;SDS011;26461;45.630;9.418;2022-11-03T05:01:48;13.63;;;7.65;;
40755;SDS011;26461;45.630;9.418;2022-11-03T05:04:58;17.17;;;6.70;;
40755;SDS011;26461;45.630;9.418;2022-11-03T05:08:04;22.65;;;8.10;;
40755;SDS011;26461;45.630;9.418;2022-11-03T05:14:30;17.85;;;8.65;;
40755;SDS011;26461;45.630;9.418;2022-11-03T05:17:41;14.68;;;6.18;;
40755;SDS011;26461;45.630;9.418;2022-11-03T05:20:52;12.23;;;7.82;;
40755;SDS011;26461;45.630;9.418;2022-11-03T05:24:08;10.13;;;7.57;;
40755;SDS011;26461;45.630;9.418;2022-11-03T05:27:21;13.10;;;8.57;;
40755;SDS011;26461;45.630;9.418;2022-11-03T05:30:32;15.45;;;7.43;;
40755;SDS011;26461;45.630;9.418;2022-11-03T05:33:42;20.35;;;7.38;;
40755;SDS011;26461;45.630;9.418;2022-11-03T05:36:57;14.35;;;6.65;;
40755;SDS011;26461;45.630;9.418;2022-11-03T05:40:23;15.15;;;7.93;;
40755;SDS011;26461;45.630;9.418;2022-11-03T05:43:34;17.90;;;10.80;;
40755;SDS011;26461;45.630;9.418;2022-11-03T05:46:44;16.75;;;8.43;;
40755;SDS011;26461;45.630;9.418;2022-11-03T05:49:55;14.18;;;9.68;;
40755;SDS011;26461;45.630;9.418;2022-11-03T05:56:23;20.60;;;11.20;;
40755;SDS011;26461;45.630;9.418;2022-11-03T05:59:33;15.82;;;11.77;;
40755;SDS011;26461;45.630;9.418;2022-11-03T06:02:44;14.52;;;8.68;;
40755;SDS011;26461;45.630;9.418;2022-11-03T06:05:55;13.40;;;10.93;;
40755;SDS011;26461;45.630;9.418;2022-11-03T06:09:10;15.50;;;8.85;;
40755;SDS011;26461;45.630;9.418;2022-11-03T06:12:24;12.90;;;8.65;;
40755;SDS011;26461;45.630;9.418;2022-11-03T06:15:34;17.33;;;9.15;;
40755;SDS011;26461;45.630;9.418;2022-11-03T06:18:46;16.00;;;10.55;;
40755;SDS011;26461;45.630;9.418;2022-11-03T06:21:57;13.52;;;9.25;;
40755;SDS011;26461;45.630;9.418;2022-11-03T06:28:33;21.75;;;9.85;;
40755;SDS011;26461;45.630;9.418;2022-11-03T06:31:48;20.35;;;13.68;;
40755;SDS011;26461;45.630;9.418;2022-11-03T06:35:01;37.60;;;13.60;;
40755;SDS011;26461;45.630;9.418;2022-11-03T06:38:14;24.88;;;12.13;;
40755;SDS011;26461;45.630;9.418;2022-11-03T06:41:28;17.10;;;11.57;;
40755;SDS011;26461;45.630;9.418;2022-11-03T06:44:43;21.13;;;10.15;;
40755;SDS011;26461;45.630;9.418;2022-11-03T06:47:59;21.70;;;11.00;;
40755;SDS011;26461;45.630;9.418;2022-11-03T06:51:15;25.38;;;12.13;;
40755;SDS011;26461;45.630;9.418;2022-11-03T06:54:32;20.25;;;11.15;;
40755;SDS011;26461;45.630;9.418;2022-11-03T06:57:43;18.02;;;10.70;;
40755;SDS011;26461;45.630;9.418;2022-11-03T07:00:55;22.83;;;11.98;;
40755;SDS011;26461;45.630;9.418;2022-11-03T07:04:15;28.15;;;9.65;;
40755;SDS011;26461;45.630;9.418;2022-11-03T07:07:30;22.13;;;13.27;;
40755;SDS011;26461;45.630;9.418;2022-11-03T07:10:40;18.70;;;14.57;;
40755;SDS011;26461;45.630;9.418;2022-11-03T07:13:51;35.80;;;19.42;;
40755;SDS011;26461;45.630;9.418;2022-11-03T07:17:04;15.23;;;12.13;;
40755;SDS011;26461;45.630;9.418;2022-11-03T07:20:26;29.35;;;17.42;;
40755;SDS011;26461;45.630;9.418;2022-11-03T07:23:36;22.83;;;9.90;;
40755;SDS011;26461;45.630;9.418;2022-11-03T07:26:46;26.88;;;12.15;;
40755;SDS011;26461;45.630;9.418;2022-11-03T07:29:58;29.15;;;14.43;;
40755;SDS011;26461;45.630;9.418;2022-11-03T07:33:20;18.58;;;9.95;;
40755;SDS011;26461;45.630;9.418;2022-11-03T07:36:32;27.55;;;13.45;;
40755;SDS011;26461;45.630;9.418;2022-11-03T07:39:42;20.50;;;10.30;;
40755;SDS011;26461;45.630;9.418;2022-11-03T07:42:56;28.27;;;12.98;;
40755;SDS011;26461;45.630;9.418;2022-11-03T07:46:08;19.23;;;10.40;;
40755;SDS011;26461;45.630;9.418;2022-11-03T07:49:25;27.35;;;13.32;;
40755;SDS011;26461;45.630;9.418;2022-11-03T07:52:36;20.65;;;11.80;;
40755;SDS011;26461;45.630;9.418;2022-11-03T07:55:46;20.77;;;13.18;;
40755;SDS011;26461;45.630;9.418;2022-11-03T07:59:02;24.60;;;11.65;;
40755;SDS011;26461;45.630;9.418;2022-11-03T08:02:42;26.70;;;14.60;;
40755;SDS011;26461;45.630;9.418;2022-11-03T08:06:04;21.38;;;11.90;;
40755;SDS011;26461;45.630;9.418;2022-11-03T08:09:15;19.13;;;13.25;;
40755;SDS011;26461;45.630;9.418;2022-11-03T08:12:25;18.50;;;12.45;;
40755;SDS011;26461;45.630;9.418;2022-11-03T08:15:35;30.05;;;16.20;;
40755;SDS011;26461;45.630;9.418;2022-11-03T08:18:45;29.48;;;14.70;;
40755;SDS011;26461;45.630;9.418;2022-11-03T08:21:55;26.50;;;11.23;;
40755;SDS011;26461;45.630;9.418;2022-11-03T08:25:06;36.42;;;12.85;;
40755;SDS011;26461;45.630;9.418;2022-11-03T08:28:16;26.55;;;16.23;;
40755;SDS011;26461;45.630;9.418;2022-11-03T08:31:26;27.23;;;15.85;;
40755;SDS011;26461;45.630;9.418;2022-11-03T08:34:36;28.92;;;16.33;;
40755;SDS011;26461;45.630;9.418;2022-11-03T08:37:46;40.17;;;18.17;;
40755;SDS011;26461;45.630;9.418;2022-11-03T08:40:56;29.30;;;15.23;;
40755;SDS011;26461;45.630;9.418;2022-11-03T08:44:10;39.00;;;16.40;;
40755;SDS011;26461;45.630;9.418;2022-11-03T08:47:20;20.58;;;15.40;;
40755;SDS011;26461;45.630;9.418;2022-11-03T08:50:30;26.65;;;16.45;;
40755;SDS011;26461;45.630;9.418;2022-11-03T08:53:40;29.42;;;15.20;;
40755;SDS011;26461;45.630;9.418;2022-11-03T08:56:53;24.05;;;11.77;;
40755;SDS011;26461;45.630;9.418;2022-11-03T09:00:04;25.77;;;11.52;;
40755;SDS011;26461;45.630;9.418;2022-11-03T09:03:14;17.20;;;10.07;;
40755;SDS011;26461;45.630;9.418;2022-11-03T09:06:24;14.57;;;8.45;;
40755;SDS011;26461;45.630;9.418;2022-11-03T09:09:34;14.90;;;8.15;;
40755;SDS011;26461;45.630;9.418;2022-11-03T09:12:44;18.30;;;8.40;;
40755;SDS011;26461;45.630;9.418;2022-11-03T09:15:54;10.57;;;6.57;;
40755;SDS011;26461;45.630;9.418;2022-11-03T09:19:04;16.80;;;6.93;;
40755;SDS011;26461;45.630;9.418;2022-11-03T09:22:14;17.77;;;7.75;;
40755;SDS011;26461;45.630;9.418;2022-11-03T09:25:24;15.52;;;7.85;;
40755;SDS011;26461;45.630;9.418;2022-11-03T09:28:34;15.45;;;8.23;;
40755;SDS011;26461;45.630;9.418;2022-11-03T09:31:44;10.40;;;5.10;;
40755;SDS011;26461;45.630;9.418;2022-11-03T09:34:54;11.65;;;5.53;;
40755;SDS011;26461;45.630;9.418;2022-11-03T09:38:04;14.40;;;6.93;;
40755;SDS011;26461;45.630;9.418;2022-11-03T09:41:16;7.65;;;3.65;;
40755;SDS011;26461;45.630;9.418;2022-11-03T09:44:30;10.68;;;2.95;;
40755;SDS011;26461;45.630;9.418;2022-11-03T09:47:42;9.70;;;5.03;;
40755;SDS011;26461;45.630;9.418;2022-11-03T09:50:55;14.30;;;6.63;;
40755;SDS011;26461;45.630;9.418;2022-11-03T09:54:12;9.77;;;5.35;;
40755;SDS011;26461;45.630;9.418;2022-11-03T09:57:30;13.90;;;6.80;;
40755;SDS011;26461;45.630;9.418;2022-11-03T10:00:41;12.45;;;6.13;;
40755;SDS011;26461;45.630;9.418;2022-11-03T10:03:52;15.98;;;7.95;;
40755;SDS011;26461;45.630;9.418;2022-11-03T10:07:09;16.38;;;5.65;;
40755;SDS011;26461;45.630;9.418;2022-11-03T10:10:19;12.10;;;7.88;;
40755;SDS011;26461;45.630;9.418;2022-11-03T10:13:32;18.95;;;8.32;;
40755;SDS011;26461;45.630;9.418;2022-11-03T10:16:52;18.02;;;7.25;;
40755;SDS011;26461;45.630;9.418;2022-11-03T10:20:09;13.82;;;7.35;;
40755;SDS011;26461;45.630;9.418;2022-11-03T10:23:23;10.73;;;7.55;;
40755;SDS011;26461;45.630;9.418;2022-11-03T10:30:07;20.52;;;10.05;;
40755;SDS011;26461;45.630;9.418;2022-11-03T10:33:32;17.05;;;6.32;;
40755;SDS011;26461;45.630;9.418;2022-11-03T10:36:46;10.57;;;6.03;;
40755;SDS011;26461;45.630;9.418;2022-11-03T10:39:52;8.85;;;5.60;;
40755;SDS011;26461;45.630;9.418;2022-11-03T10:43:08;21.48;;;8.82;;
40755;SDS011;26461;45.630;9.418;2022-11-03T10:46:20;12.40;;;7.63;;
40755;SDS011;26461;45.630;9.418;2022-11-03T10:49:31;14.73;;;6.00;;
40755;SDS011;26461;45.630;9.418;2022-11-03T10:52:44;12.32;;;8.35;;
40755;SDS011;26461;45.630;9.418;2022-11-03T10:55:54;15.57;;;7.65;;
40755;SDS011;26461;45.630;9.418;2022-11-03T10:59:05;14.15;;;8.57;;
40755;SDS011;26461;45.630;9.418;2022-11-03T11:02:25;14.88;;;9.32;;
40755;SDS011;26461;45.630;9.418;2022-11-03T11:05:43;28.52;;;7.85;;
40755;SDS011;26461;45.630;9.418;2022-11-03T11:09:02;11.68;;;7.15;;
40755;SDS011;26461;45.630;9.418;2022-11-03T11:15:40;15.60;;;8.27;;
40755;SDS011;26461;45.630;9.418;2022-11-03T11:22:11;12.25;;;5.43;;
40755;SDS011;26461;45.630;9.418;2022-11-03T11:25:22;18.75;;;8.57;;
40755;SDS011;26461;45.630;9.418;2022-11-03T11:39:00;12.20;;;7.55;;
40755;SDS011;26461;45.630;9.418;2022-11-03T11:42:12;15.20;;;6.65;;
40755;SDS011;26461;45.630;9.418;2022-11-03T11:46:19;18.60;;;9.80;;
40755;SDS011;26461;45.630;9.418;2022-11-03T11:52:22;17.85;;;10.80;;
40755;SDS011;26461;45.630;9.418;2022-11-03T11:55:36;17.83;;;7.93;;
40755;SDS011;26461;45.630;9.418;2022-11-03T12:01:58;33.17;;;15.27;;
40755;SDS011;26461;45.630;9.418;2022-11-03T12:05:16;29.17;;;14.52;;
40755;SDS011;26461;45.630;9.418;2022-11-03T12:08:28;34.22;;;16.67;;
40755;SDS011;26461;45.630;9.418;2022-11-03T12:11:40;19.08;;;11.30;;
40755;SDS011;26461;45.630;9.418;2022-11-03T12:14:53;22.70;;;13.65;;
40755;SDS011;26461;45.630;9.418;2022-11-03T12:18:49;32.33;;;12.52;;
40755;SDS011;26461;45.630;9.418;2022-11-03T12:24:55;16.13;;;12.52;;
40755;SDS011;26461;45.630;9.418;2022-11-03T12:28:05;34.90;;;17.63;;
40755;SDS011;26461;45.630;9.418;2022-11-03T12:31:15;30.63;;;16.85;;
40755;SDS011;26461;45.630;9.418;2022-11-03T12:34:25;28.23;;;14.20;;
40755;SDS011;26461;45.630;9.418;2022-11-03T12:37:35;21.40;;;14.63;;
40755;SDS011;26461;45.630;9.418;2022-11-03T12:40:40;28.88;;;13.52;;
40755;SDS011;26461;45.630;9.418;2022-11-03T12:43:50;15.23;;;10.25;;
40755;SDS011;26461;45.630;9.418;2022-11-03T12:47:01;20.33;;;15.43;;
40755;SDS011;26461;45.630;9.418;2022-11-03T12:50:11;25.77;;;14.65;;
40755;SDS011;26461;45.630;9.418;2022-11-03T12:53:16;36.63;;;16.00;;
40755;SDS011;26461;45.630;9.418;2022-11-03T12:56:26;33.55;;;18.08;;
40755;SDS011;26461;45.630;9.418;2022-11-03T12:59:32;21.70;;;14.98;;
40755;SDS011;26461;45.630;9.418;2022-11-03T13:02:42;22.63;;;11.45;;
40755;SDS011;26461;45.630;9.418;2022-11-03T13:05:52;26.40;;;16.85;;
40755;SDS011;26461;45.630;9.418;2022-11-03T13:09:02;40.42;;;17.13;;
40755;SDS011;26461;45.630;9.418;2022-11-03T13:12:12;25.98;;;15.27;;
40755;SDS011;26461;45.630;9.418;2022-11-03T13:15:40;25.52;;;15.63;;
40755;SDS011;26461;45.630;9.418;2022-11-03T13:18:50;25.25;;;13.98;;
40755;SDS011;26461;45.630;9.418;2022-11-03T13:22:00;43.67;;;18.02;;
40755;SDS011;26461;45.630;9.418;2022-11-03T13:25:10;29.85;;;16.73;;
40755;SDS011;26461;45.630;9.418;2022-11-03T13:28:20;22.85;;;14.95;;
40755;SDS011;26461;45.630;9.418;2022-11-03T13:31:32;22.70;;;13.25;;
40755;SDS011;26461;45.630;9.418;2022-11-03T13:34:44;28.50;;;13.38;;
40755;SDS011;26461;45.630;9.418;2022-11-03T13:37:54;19.65;;;13.80;;
40755;SDS011;26461;45.630;9.418;2022-11-03T13:41:04;31.02;;;19.55;;
40755;SDS011;26461;45.630;9.418;2022-11-03T13:44:14;30.30;;;15.18;;
40755;SDS011;26461;45.630;9.418;2022-11-03T13:47:24;31.08;;;18.30;;
40755;SDS011;26461;45.630;9.418;2022-11-03T13:50:34;23.77;;;14.93;;
40755;SDS011;26461;45.630;9.418;2022-11-03T13:53:44;35.40;;;15.30;;
40755;SDS011;26461;45.630;9.418;2022-11-03T13:56:54;22.02;;;10.95;;
40755;SDS011;26461;45.630;9.418;2022-11-03T13:59:59;20.42;;;10.93;;
40755;SDS011;26461;45.630;9.418;2022-11-03T14:03:15;15.13;;;9.40;;
40755;SDS011;26461;45.630;9.418;2022-11-03T14:06:20;19.02;;;10.50;;
40755;SDS011;26461;45.630;9.418;2022-11-03T14:09:32;29.33;;;12.50;;
40755;SDS011;26461;45.630;9.418;2022-11-03T14:12:42;25.92;;;14.80;;
40755;SDS011;26461;45.630;9.418;2022-11-03T14:15:52;30.15;;;15.35;;
40755;SDS011;26461;45.630;9.418;2022-11-03T14:19:02;21.38;;;12.85;;
40755;SDS011;26461;45.630;9.418;2022-11-03T14:22:08;18.95;;;14.13;;
40755;SDS011;26461;45.630;9.418;2022-11-03T14:25:18;34.60;;;13.07;;
40755;SDS011;26461;45.630;9.418;2022-11-03T14:28:28;25.52;;;14.88;;
40755;SDS011;26461;45.630;9.418;2022-11-03T14:31:38;22.35;;;10.68;;
40755;SDS011;26461;45.630;9.418;2022-11-03T14:34:43;31.67;;;17.98;;
40755;SDS011;26461;45.630;9.418;2022-11-03T14:37:56;23.10;;;14.60;;
40755;SDS011;26461;45.630;9.418;2022-11-03T14:41:07;22.00;;;11.75;;
40755;SDS011;26461;45.630;9.418;2022-11-03T14:44:36;21.13;;;13.18;;
40755;SDS011;26461;45.630;9.418;2022-11-03T14:47:46;15.75;;;11.75;;
40755;SDS011;26461;45.630;9.418;2022-11-03T14:50:56;28.85;;;15.10;;
40755;SDS011;26461;45.630;9.418;2022-11-03T14:54:01;19.85;;;11.55;;
40755;SDS011;26461;45.630;9.418;2022-11-03T14:57:06;20.38;;;12.70;;
40755;SDS011;26461;45.630;9.418;2022-11-03T15:00:14;18.42;;;10.65;;
40755;SDS011;26461;45.630;9.418;2022-11-03T15:03:19;32.20;;;14.60;;
40755;SDS011;26461;45.630;9.418;2022-11-03T15:06:24;29.00;;;12.77;;
40755;SDS011;26461;45.630;9.418;2022-11-03T15:09:34;15.63;;;12.40;;
40755;SDS011;26461;45.630;9.418;2022-11-03T15:12:44;17.38;;;13.35;;
40755;SDS011;26461;45.630;9.418;2022-11-03T15:15:49;24.98;;;16.25;;
40755;SDS011;26461;45.630;9.418;2022-11-03T15:18:58;20.58;;;15.18;;
40755;SDS011;26461;45.630;9.418;2022-11-03T15:22:03;20.77;;;13.32;;
40755;SDS011;26461;45.630;9.418;2022-11-03T15:25:09;21.70;;;13.73;;
40755;SDS011;26461;45.630;9.418;2022-11-03T15:28:13;28.42;;;16.60;;
40755;SDS011;26461;45.630;9.418;2022-11-03T15:31:19;28.27;;;13.43;;
40755;SDS011;26461;45.630;9.418;2022-11-03T15:34:28;30.70;;;15.10;;
40755;SDS011;26461;45.630;9.418;2022-11-03T15:37:38;30.10;;;15.18;;
40755;SDS011;26461;45.630;9.418;2022-11-03T15:40:45;34.30;;;17.05;;
40755;SDS011;26461;45.630;9.418;2022-11-03T15:43:55;20.75;;;12.02;;
40755;SDS011;26461;45.630;9.418;2022-11-03T15:47:05;20.90;;;15.15;;
40755;SDS011;26461;45.630;9.418;2022-11-03T15:50:16;24.88;;;12.38;;
40755;SDS011;26461;45.630;9.418;2022-11-03T15:53:25;21.75;;;14.00;;
40755;SDS011;26461;45.630;9.418;2022-11-03T15:56:35;26.05;;;14.50;;
40755;SDS011;26461;45.630;9.418;2022-11-03T15:59:45;21.10;;;14.20;;
40755;SDS011;26461;45.630;9.418;2022-11-03T16:02:56;22.77;;;10.38;;
40755;SDS011;26461;45.630;9.418;2022-11-03T16:06:06;23.83;;;11.80;;
40755;SDS011;26461;45.630;9.418;2022-11-03T16:09:17;21.70;;;11.05;;
40755;SDS011;26461;45.630;9.418;2022-11-03T16:12:28;31.88;;;14.05;;
40755;SDS011;26461;45.630;9.418;2022-11-03T16:15:38;30.75;;;13.65;;
40755;SDS011;26461;45.630;9.418;2022-11-03T16:18:49;27.05;;;12.40;;
40755;SDS011;26461;45.630;9.418;2022-11-03T16:22:02;26.90;;;11.40;;
40755;SDS011;26461;45.630;9.418;2022-11-03T16:25:12;15.18;;;9.05;;
40755;SDS011;26461;45.630;9.418;2022-11-03T16:28:22;27.30;;;15.48;;
40755;SDS011;26461;45.630;9.418;2022-11-03T16:31:32;26.02;;;14.93;;
40755;SDS011;26461;45.630;9.418;2022-11-03T16:34:38;29.00;;;14.15;;
40755;SDS011;26461;45.630;9.418;2022-11-03T16:37:51;19.00;;;12.18;;
40755;SDS011;26461;45.630;9.418;2022-11-03T16:40:59;33.58;;;17.50;;
40755;SDS011;26461;45.630;9.418;2022-11-03T16:44:09;35.72;;;14.75;;
40755;SDS011;26461;45.630;9.418;2022-11-03T16:47:20;31.70;;;16.65;;
40755;SDS011;26461;45.630;9.418;2022-11-03T16:50:25;32.05;;;19.17;;
40755;SDS011;26461;45.630;9.418;2022-11-03T16:53:35;28.92;;;17.40;;
40755;SDS011;26461;45.630;9.418;2022-11-03T16:56:45;28.35;;;14.55;;
40755;SDS011;26461;45.630;9.418;2022-11-03T16:59:50;19.45;;;11.82;;
40755;SDS011;26461;45.630;9.418;2022-11-03T17:02:55;35.65;;;21.60;;
40755;SDS011;26461;45.630;9.418;2022-11-03T17:06:00;38.63;;;19.38;;
40755;SDS011;26461;45.630;9.418;2022-11-03T17:09:10;30.00;;;18.75;;
40755;SDS011;26461;45.630;9.418;2022-11-03T17:12:21;28.55;;;18.52;;
40755;SDS011;26461;45.630;9.418;2022-11-03T17:15:28;42.45;;;17.95;;
40755;SDS011;26461;45.630;9.418;2022-11-03T17:18:32;39.78;;;18.48;;
40755;SDS011;26461;45.630;9.418;2022-11-03T17:21:44;43.58;;;25.00;;
40755;SDS011;26461;45.630;9.418;2022-11-03T17:24:49;44.85;;;22.90;;
40755;SDS011;26461;45.630;9.418;2022-11-03T17:27:59;41.03;;;21.17;;
40755;SDS011;26461;45.630;9.418;2022-11-03T17:31:06;47.92;;;21.83;;
40755;SDS011;26461;45.630;9.418;2022-11-03T17:34:22;29.77;;;21.73;;
40755;SDS011;26461;45.630;9.418;2022-11-03T17:37:33;42.85;;;19.73;;
40755;SDS011;26461;45.630;9.418;2022-11-03T17:40:46;29.85;;;17.42;;
40755;SDS011;26461;45.630;9.418;2022-11-03T17:43:57;48.38;;;20.67;;
40755;SDS011;26461;45.630;9.418;2022-11-03T17:47:07;42.30;;;22.38;;
40755;SDS011;26461;45.630;9.418;2022-11-03T17:57:31;38.95;;;15.25;;
40755;SDS011;26461;45.630;9.418;2022-11-03T18:00:39;41.38;;;17.45;;
40755;SDS011;26461;45.630;9.418;2022-11-03T18:03:47;37.67;;;19.80;;
40755;SDS011;26461;45.630;9.418;2022-11-03T18:06:56;35.13;;;21.58;;
40755;SDS011;26461;45.630;9.418;2022-11-03T18:10:08;36.17;;;22.55;;
40755;SDS011;26461;45.630;9.418;2022-11-03T18:16:23;29.65;;;14.23;;
40755;SDS011;26461;45.630;9.418;2022-11-03T18:19:28;34.58;;;16.48;;
40755;SDS011;26461;45.630;9.418;2022-11-03T18:22:42;48.90;;;20.33;;
40755;SDS011;26461;45.630;9.418;2022-11-03T18:25:48;28.05;;;15.27;;
40755;SDS011;26461;45.630;9.418;2022-11-03T18:28:58;28.02;;;17.42;;
40755;SDS011;26461;45.630;9.418;2022-11-03T18:32:04;35.53;;;21.15;;
40755;SDS011;26461;45.630;9.418;2022-11-03T18:35:12;33.65;;;24.08;;
40755;SDS011;26461;45.630;9.418;2022-11-03T18:38:22;49.20;;;27.05;;
40755;SDS011;26461;45.630;9.418;2022-11-03T18:41:36;43.50;;;19.83;;
40755;SDS011;26461;45.630;9.418;2022-11-03T18:44:49;39.83;;;20.63;;
40755;SDS011;26461;45.630;9.418;2022-11-03T18:48:00;40.78;;;21.70;;
40755;SDS011;26461;45.630;9.418;2022-11-03T18:51:10;37.40;;;21.30;;
40755;SDS011;26461;45.630;9.418;2022-11-03T18:54:17;45.05;;;18.50;;
40755;SDS011;26461;45.630;9.418;2022-11-03T18:57:27;35.58;;;17.73;;
40755;SDS011;26461;45.630;9.418;2022-11-03T19:00:33;32.60;;;14.75;;
40755;SDS011;26461;45.630;9.418;2022-11-03T19:03:43;39.78;;;17.05;;
40755;SDS011;26461;45.630;9.418;2022-11-03T19:06:53;24.65;;;16.35;;
40755;SDS011;26461;45.630;9.418;2022-11-03T19:10:06;40.05;;;19.85;;
40755;SDS011;26461;45.630;9.418;2022-11-03T19:13:25;29.42;;;16.27;;
40755;SDS011;26461;45.630;9.418;2022-11-03T19:16:40;24.80;;;15.55;;
40755;SDS011;26461;45.630;9.418;2022-11-03T19:19:47;24.40;;;13.98;;
40755;SDS011;26461;45.630;9.418;2022-11-03T19:22:58;29.00;;;16.88;;
40755;SDS011;26461;45.630;9.418;2022-11-03T19:26:18;27.95;;;15.27;;
40755;SDS011;26461;45.630;9.418;2022-11-03T19:29:37;41.00;;;21.33;;
40755;SDS011;26461;45.630;9.418;2022-11-03T19:32:53;33.42;;;19.58;;
40755;SDS011;26461;45.630;9.418;2022-11-03T19:36:05;47.38;;;26.80;;
40755;SDS011;26461;45.630;9.418;2022-11-03T19:39:21;41.58;;;24.23;;
40755;SDS011;26461;45.630;9.418;2022-11-03T19:42:29;43.97;;;19.67;;
40755;SDS011;26461;45.630;9.418;2022-11-03T19:45:37;44.97;;;25.00;;
40755;SDS011;26461;45.630;9.418;2022-11-03T19:48:47;43.05;;;18.27;;
40755;SDS011;26461;45.630;9.418;2022-11-03T19:51:55;45.47;;;19.63;;